• Join FlightAware (Why Join?)
  • Login
  • US Flag 
08:33PM EDT


 

Airport Tracker/Info


-or-


 

Live Flight TrackerFlight Track Log ✈ DAL1092 ✈ 13-Oct-2013 ✈ KSYR - KATL

Flight Track Log - Related Links

Times and Time Zones

All times are in EDT time to prevent confusion due to time zone crossing. See the DAL1092 flight status page for this flight to view local times or setup timezone preferences in your user account.

Time Position Orientation Groundspeed Altitude Reporting Facility
EDT Latitude Longitude Course Direction KTS MPH feet Rate Location/Type
12:17PM 43.0942 -76.0317 109° East 208 239 3,000  Level Boston Center
12:18PM 43.0506 -76.0886 224° Southwest 253 291 4,800 2,280 Climbing Boston Center
12:19PM 43.0144 -76.1747 240° Southwest 273 314 7,800 1,860 Climbing Boston Center
12:20PM 42.6470 -76.5847 211° Southwest  Level Estimated
12:20PM 42.9422 -76.3314 238° Southwest 297 342 10,100  Level New York Center
12:21PM 42.5539 -76.6795 200° South  Level Estimated
12:21PM 42.8614 -76.4122 216° Southwest 328 377 10,000  Level New York Center
12:22PM 42.7767 -76.4867 213° Southwest 354 407 10,100 1,200 Climbing New York Center
12:23PM 42.6858 -76.5606 211° Southwest 376 433 12,400 2,400 Climbing New York Center
12:24PM 42.5903 -76.6422 212° Southwest 395 455 14,900 2,520 Climbing New York Center
12:25PM 42.4925 -76.7233 211° Southwest 415 478 17,500 1,860 Climbing New York Center
12:26PM 42.3925 -76.8069 212° Southwest 422 486 18,700 1,560 Climbing New York Center
12:27PM 42.2861 -76.8925 211° Southwest 435 501 20,700 1,800 Climbing New York Center
12:28PM 42.1775 -76.9831 212° Southwest 455 524 22,300 1,680 Climbing New York Center
12:29PM 42.0578 -77.0808 211° Southwest 460 529 24,100 2,040 Climbing New York Center
12:30PM 41.9489 -77.1681 211° Southwest 465 535 26,400 2,040 Climbing New York Center
12:31PM 41.8442 -77.2556 212° Southwest 465 535 28,200 1,500 Climbing New York Center
12:32PM 41.7397 -77.3397 211° Southwest 453 521 29,400 900 Climbing New York Center
12:33PM 41.6350 -77.4239 211° Southwest 453 521 30,000 300 Climbing New York Center
12:34PM 41.5322 -77.5108 212° Southwest 453 521 30,000  Level New York Center
12:35PM 41.4275 -77.5917 210° Southwest 453 521 30,000 360 Level New York Center
12:37PM 41.2172 -77.7611 211° Southwest 444 511 31,200 720 Climbing Cleveland Center
12:39PM 41.1108 -77.8461 211° Southwest 448 516 32,300 1,020 Climbing Cleveland Center
12:40PM 40.9850 -77.9453 211° Southwest 439 505 33,400 780 Climbing Cleveland Center
12:41PM 40.8889 -78.0428 217° Southwest 446 513 34,000 240 Climbing Cleveland Center
12:42PM 40.8094 -78.1647 229° Southwest 440 506 34,000  Level Cleveland Center
12:43PM 40.7314 -78.2878 230° Southwest 436 502 34,000  Level Cleveland Center
12:44PM 40.6525 -78.4108 230° Southwest 437 503 34,000  Level Cleveland Center
12:45PM 40.5736 -78.5328 230° Southwest 437 503 34,000  Level Cleveland Center
12:46PM 40.4953 -78.6528 229° Southwest 434 499 34,000  Level Cleveland Center
12:47PM 40.4014 -78.7969 229° Southwest 433 498 34,000  Level Cleveland Center
12:48PM 40.3225 -78.9161 229° Southwest 435 501 34,000  Level Cleveland Center
12:49PM 40.2447 -79.0356 230° Southwest 434 499 34,000  Level Cleveland Center
12:50PM 40.1656 -79.1550 229° Southwest 436 502 34,000  Level Cleveland Center
12:51PM 40.0858 -79.2725 228° Southwest 434 499 34,000  Level Cleveland Center
12:52PM 39.9994 -79.4019 229° Southwest 432 497 34,000  Level Cleveland Center
12:53PM 39.9211 -79.5178 229° Southwest 428 493 34,000  Level Cleveland Center
12:54PM 39.8417 -79.6358 229° Southwest 431 496 34,000  Level Cleveland Center
12:55PM 39.7611 -79.7542 228° Southwest 434 499 34,000  Level Cleveland Center
12:56PM 39.6661 -79.8931 228° Southwest 429 494 34,000  Level Cleveland Center
12:57PM 39.5869 -80.0075 228° Southwest 427 491 34,000  Level Cleveland Center
12:58PM 39.5064 -80.1261 229° Southwest 434 499 34,000  Level Cleveland Center
12:59PM 39.4658 -80.1825 227° Southwest 433 498 34,000  Level Indianapolis Center
01:00PM 39.3681 -80.3197 227° Southwest 431 496 34,000  Level Indianapolis Center
01:01PM 39.2878 -80.4331 228° Southwest 429 494 34,000  Level Indianapolis Center
01:02PM 39.2069 -80.5447 227° Southwest 427 491 34,000  Level Indianapolis Center
01:03PM 39.1250 -80.6564 227° Southwest 427 491 34,000  Level Indianapolis Center
01:04PM 39.0433 -80.7692 227° Southwest 430 495 34,000  Level Indianapolis Center
01:05PM 38.9617 -80.8814 227° Southwest 429 494 34,000  Level Indianapolis Center
01:06PM 38.8853 -80.9981 230° Southwest 427 491 34,000  Level Indianapolis Center
01:07PM 38.7922 -81.1361 229° Southwest 425 489 34,000  Level Indianapolis Center
01:08PM 38.7139 -81.2511 229° Southwest 425 489 34,000  Level Indianapolis Center
01:09PM 38.6331 -81.3675 228° Southwest 427 491 34,000  Level Indianapolis Center
01:10PM 38.5522 -81.4856 229° Southwest 429 494 34,000  Level Indianapolis Center
01:11PM 38.4717 -81.6011 228° Southwest 428 493 34,000  Level Indianapolis Center
01:12PM 38.3911 -81.7158 228° Southwest 431 496 34,000  Level Indianapolis Center
01:13PM 38.2911 -81.7997 213° Southwest 440 506 34,000  Level Indianapolis Center
01:14PM 38.1764 -81.8483 198° South 435 501 34,000  Level Indianapolis Center
01:15PM 38.0606 -81.8964 198° South 437 503 34,000  Level Indianapolis Center
01:16PM 37.9450 -81.9461 199° South 439 505 34,000  Level Indianapolis Center
01:17PM 37.8075 -82.0050 199° South 438 504 34,000  Level Indianapolis Center
01:18PM 37.6906 -82.0542 198° South 441 507 34,000  Level Indianapolis Center
01:19PM 37.5756 -82.1050 199° South 438 504 34,000  Level Indianapolis Center
01:20PM 37.4586 -82.1542 198° South 440 506 34,000  Level Indianapolis Center
01:21PM 37.3436 -82.2044 199° South 436 502 34,000  Level Indianapolis Center
01:23PM 37.2100 -82.2628 199° South 434 499 34,000  Level Indianapolis Center
01:24PM 37.0939 -82.3106 198° South 435 501 34,000  Level Indianapolis Center
01:25PM 36.9772 -82.3603 199° South 438 504 34,000  Level Indianapolis Center
01:26PM 36.8611 -82.4092 199° South 436 502 34,000  Level Indianapolis Center
01:27PM 36.7456 -82.4586 199° South 435 501 34,000  Level Indianapolis Center
01:28PM 36.6278 -82.5069 198° South 439 505 34,000  Level Indianapolis Center
01:29PM 36.4708 -82.5750 199° South 441 507 34,000  Level Atlanta Center
01:30PM 36.3547 -82.6208 198° South 441 507 34,000  Level Atlanta Center
01:31PM 36.2406 -82.6692 199° South 441 507 34,000  Level Atlanta Center
01:32PM 36.1219 -82.7175 198° South 447 514 34,000  Level Atlanta Center
01:33PM 36.0058 -82.7656 199° South 447 514 34,000  Level Atlanta Center
01:34PM 35.8811 -82.8164 198° South 442 509 34,000  Level Atlanta Center
01:35PM 35.7647 -82.8642 198° South 442 509 34,000  Level Atlanta Center
01:36PM 35.6464 -82.9142 199° South 442 509 34,000  Level Atlanta Center
01:37PM 35.5300 -82.9619 198° South 442 509 34,000  Level Atlanta Center
01:38PM 35.4156 -83.0092 199° South 442 509 34,000  Level Atlanta Center
01:39PM 35.2992 -83.0564 198° South 447 514 34,000  Level Atlanta Center
01:40PM 35.1953 -83.0983 198° South 441 507 34,000  Level Atlanta Center
01:41PM 35.0786 -83.1481 199° South 441 507 34,000 -900 Level Atlanta Center
01:42PM 34.9706 -83.2150 207° Southwest 441 507 32,300 -1,860 Descending Atlanta Center
01:43PM 34.8625 -83.2919 210° Southwest 446 513 30,300 -1,620 Descending Atlanta Center
01:44PM 34.7567 -83.3714 212° Southwest 452 520 29,100 -1,860 Descending Atlanta Center
01:45PM 34.6381 -83.4456 207° Southwest 440 506 26,600 -2,160 Descending Atlanta Center
01:46PM 34.5486 -83.5117 211° Southwest 430 495 24,800 -2,400 Descending Atlanta Center
01:47PM 34.4467 -83.5878 212° Southwest 430 495 21,800 -2,400 Descending Atlanta Center
01:49PM 34.2406 -83.7372 211° Southwest 425 489 17,600 -2,040 Descending Atlanta Center
01:50PM 34.1406 -83.8078 210° Southwest 418 481 15,700 -1,920 Descending Atlanta Center
01:51PM 34.0333 -83.9000 215° Southwest 399 459 13,700 -1,740 Descending Atlanta TRACON
01:52PM 33.9500 -83.9833 220° Southwest 384 442 12,000 -900 Descending Atlanta TRACON
01:53PM 33.8611 -84.0489 211° Southwest 400 460 12,000  Level Atlanta Center
01:54PM 33.7628 -84.1189 211° Southwest 405 466 12,000  Level Atlanta Center
01:55PM 33.7314 -84.2286 251° West 347 399 12,000 -480 Level Atlanta Center
01:56PM 33.7314 -84.3236 270° West 307 353 11,100 -1,380 Descending Atlanta Center
01:57PM 33.7311 -84.4061 270° West 293 337 9,300 -1,860 Descending Atlanta Center
01:58PM 33.7333 -84.5000 272° West 241 277 7,200 -1,980 Descending Atlanta TRACON
01:59PM 33.7333 -84.5833 270° West 233 268 5,300 -1,620 Descending Atlanta TRACON
02:00PM 33.7167 -84.6500 253° West 240 276 4,000 -720 Descending Atlanta TRACON
02:01PM 33.6667 -84.6167 151° Southeast 202 232 3,900 -600 Descending Atlanta TRACON
02:02PM 33.6500 -84.5500 107° East 194 223 2,900 -1,020 Descending Atlanta TRACON
02:03PM 33.6500 -84.4833 90° East 186 214 1,900 -900 Descending Atlanta TRACON
02:04PM 33.6500 -84.4333 90° East 148 170 1,100 -840 Descending Atlanta TRACON